sensor_id;sensor_type;location;lat;lon;timestamp;P1;durP1;ratioP1;P2;durP2;ratioP2
78141;SDS011;67393;52.620;13.482;2024-02-21T00:00:24;18.65;;;6.20;;
78141;SDS011;67393;52.620;13.482;2024-02-21T00:02:50;18.42;;;6.40;;
78141;SDS011;67393;52.620;13.482;2024-02-21T00:05:16;19.60;;;6.35;;
78141;SDS011;67393;52.620;13.482;2024-02-21T00:07:43;19.30;;;6.30;;
78141;SDS011;67393;52.620;13.482;2024-02-21T00:10:09;22.70;;;7.07;;
78141;SDS011;67393;52.620;13.482;2024-02-21T00:12:35;18.77;;;5.40;;
78141;SDS011;67393;52.620;13.482;2024-02-21T00:15:02;16.83;;;5.78;;
78141;SDS011;67393;52.620;13.482;2024-02-21T00:17:28;17.17;;;7.70;;
78141;SDS011;67393;52.620;13.482;2024-02-21T00:19:54;19.92;;;6.70;;
78141;SDS011;67393;52.620;13.482;2024-02-21T00:22:21;26.23;;;7.45;;
78141;SDS011;67393;52.620;13.482;2024-02-21T00:24:47;18.73;;;6.80;;
78141;SDS011;67393;52.620;13.482;2024-02-21T00:27:13;23.73;;;7.18;;
78141;SDS011;67393;52.620;13.482;2024-02-21T00:29:39;22.85;;;6.25;;
78141;SDS011;67393;52.620;13.482;2024-02-21T00:32:06;16.23;;;6.32;;
78141;SDS011;67393;52.620;13.482;2024-02-21T00:34:32;18.20;;;5.43;;
78141;SDS011;67393;52.620;13.482;2024-02-21T00:36:58;25.88;;;7.45;;
78141;SDS011;67393;52.620;13.482;2024-02-21T00:39:24;23.33;;;5.97;;
78141;SDS011;67393;52.620;13.482;2024-02-21T00:41:51;21.65;;;6.05;;
78141;SDS011;67393;52.620;13.482;2024-02-21T00:44:17;17.60;;;5.80;;
78141;SDS011;67393;52.620;13.482;2024-02-21T00:46:44;23.17;;;6.45;;
78141;SDS011;67393;52.620;13.482;2024-02-21T00:49:10;25.27;;;6.18;;
78141;SDS011;67393;52.620;13.482;2024-02-21T00:51:36;21.00;;;6.43;;
78141;SDS011;67393;52.620;13.482;2024-02-21T00:54:03;21.88;;;6.20;;
78141;SDS011;67393;52.620;13.482;2024-02-21T00:56:29;25.73;;;5.50;;
78141;SDS011;67393;52.620;13.482;2024-02-21T00:58:55;30.38;;;6.22;;
78141;SDS011;67393;52.620;13.482;2024-02-21T01:01:22;24.90;;;6.30;;
78141;SDS011;67393;52.620;13.482;2024-02-21T01:03:49;17.63;;;5.40;;
78141;SDS011;67393;52.620;13.482;2024-02-21T01:06:15;18.75;;;5.28;;
78141;SDS011;67393;52.620;13.482;2024-02-21T01:08:41;22.17;;;5.22;;
78141;SDS011;67393;52.620;13.482;2024-02-21T01:11:08;19.58;;;5.50;;
78141;SDS011;67393;52.620;13.482;2024-02-21T01:13:34;14.75;;;4.97;;
78141;SDS011;67393;52.620;13.482;2024-02-21T01:16:00;16.13;;;4.90;;
78141;SDS011;67393;52.620;13.482;2024-02-21T01:18:27;15.85;;;5.50;;
78141;SDS011;67393;52.620;13.482;2024-02-21T01:20:53;21.05;;;5.07;;
78141;SDS011;67393;52.620;13.482;2024-02-21T01:23:19;17.65;;;5.82;;
78141;SDS011;67393;52.620;13.482;2024-02-21T01:25:46;15.52;;;4.80;;
78141;SDS011;67393;52.620;13.482;2024-02-21T01:28:12;13.02;;;4.85;;
78141;SDS011;67393;52.620;13.482;2024-02-21T01:30:38;17.30;;;5.40;;
78141;SDS011;67393;52.620;13.482;2024-02-21T01:33:04;15.27;;;5.13;;
78141;SDS011;67393;52.620;13.482;2024-02-21T01:35:31;14.98;;;4.75;;
78141;SDS011;67393;52.620;13.482;2024-02-21T01:37:57;16.95;;;5.57;;
78141;SDS011;67393;52.620;13.482;2024-02-21T01:40:23;19.85;;;5.22;;
78141;SDS011;67393;52.620;13.482;2024-02-21T01:42:49;18.08;;;5.43;;
78141;SDS011;67393;52.620;13.482;2024-02-21T01:45:16;16.25;;;5.10;;
78141;SDS011;67393;52.620;13.482;2024-02-21T01:47:44;19.33;;;4.90;;
78141;SDS011;67393;52.620;13.482;2024-02-21T01:50:10;29.42;;;6.50;;
78141;SDS011;67393;52.620;13.482;2024-02-21T01:52:38;12.88;;;4.40;;
78141;SDS011;67393;52.620;13.482;2024-02-21T01:55:04;10.73;;;5.10;;
78141;SDS011;67393;52.620;13.482;2024-02-21T01:57:31;11.93;;;4.55;;
78141;SDS011;67393;52.620;13.482;2024-02-21T01:59:58;19.33;;;5.97;;
78141;SDS011;67393;52.620;13.482;2024-02-21T02:02:24;16.75;;;4.88;;
78141;SDS011;67393;52.620;13.482;2024-02-21T02:04:50;15.80;;;4.47;;
78141;SDS011;67393;52.620;13.482;2024-02-21T02:07:17;22.65;;;5.85;;
78141;SDS011;67393;52.620;13.482;2024-02-21T02:09:44;25.58;;;5.25;;
78141;SDS011;67393;52.620;13.482;2024-02-21T02:12:10;16.50;;;4.55;;
78141;SDS011;67393;52.620;13.482;2024-02-21T02:14:36;15.48;;;4.57;;
78141;SDS011;67393;52.620;13.482;2024-02-21T02:17:03;14.57;;;4.13;;
78141;SDS011;67393;52.620;13.482;2024-02-21T02:19:29;19.52;;;4.28;;
78141;SDS011;67393;52.620;13.482;2024-02-21T02:22:00;6.20;;;3.65;;
78141;SDS011;67393;52.620;13.482;2024-02-21T02:24:29;17.88;;;4.63;;
78141;SDS011;67393;52.620;13.482;2024-02-21T02:26:55;12.88;;;4.10;;
78141;SDS011;67393;52.620;13.482;2024-02-21T02:29:22;14.30;;;5.28;;
78141;SDS011;67393;52.620;13.482;2024-02-21T02:31:49;18.25;;;5.40;;
78141;SDS011;67393;52.620;13.482;2024-02-21T02:34:15;17.20;;;4.82;;
78141;SDS011;67393;52.620;13.482;2024-02-21T02:36:41;11.95;;;4.18;;
78141;SDS011;67393;52.620;13.482;2024-02-21T02:39:08;20.10;;;5.40;;
78141;SDS011;67393;52.620;13.482;2024-02-21T02:41:35;14.98;;;4.25;;
78141;SDS011;67393;52.620;13.482;2024-02-21T02:44:01;12.93;;;5.28;;
78141;SDS011;67393;52.620;13.482;2024-02-21T02:46:27;13.98;;;5.13;;
78141;SDS011;67393;52.620;13.482;2024-02-21T02:48:54;15.18;;;4.78;;
78141;SDS011;67393;52.620;13.482;2024-02-21T02:51:20;19.58;;;6.03;;
78141;SDS011;67393;52.620;13.482;2024-02-21T02:53:46;16.95;;;5.55;;
78141;SDS011;67393;52.620;13.482;2024-02-21T02:56:15;17.27;;;5.22;;
78141;SDS011;67393;52.620;13.482;2024-02-21T02:58:44;19.52;;;5.40;;
78141;SDS011;67393;52.620;13.482;2024-02-21T03:01:10;14.98;;;5.45;;
78141;SDS011;67393;52.620;13.482;2024-02-21T03:03:37;15.88;;;5.35;;
78141;SDS011;67393;52.620;13.482;2024-02-21T03:06:03;13.32;;;3.75;;
78141;SDS011;67393;52.620;13.482;2024-02-21T03:08:30;18.33;;;5.40;;
78141;SDS011;67393;52.620;13.482;2024-02-21T03:10:56;16.83;;;6.07;;
78141;SDS011;67393;52.620;13.482;2024-02-21T03:13:22;16.80;;;4.75;;
78141;SDS011;67393;52.620;13.482;2024-02-21T03:15:48;20.70;;;6.30;;
78141;SDS011;67393;52.620;13.482;2024-02-21T03:18:15;23.92;;;7.75;;
78141;SDS011;67393;52.620;13.482;2024-02-21T03:20:41;18.75;;;7.28;;
78141;SDS011;67393;52.620;13.482;2024-02-21T03:23:07;14.05;;;5.55;;
78141;SDS011;67393;52.620;13.482;2024-02-21T03:25:34;26.20;;;6.95;;
78141;SDS011;67393;52.620;13.482;2024-02-21T03:28:00;23.38;;;6.20;;
78141;SDS011;67393;52.620;13.482;2024-02-21T03:30:26;23.70;;;6.55;;
78141;SDS011;67393;52.620;13.482;2024-02-21T03:32:52;17.80;;;5.53;;
78141;SDS011;67393;52.620;13.482;2024-02-21T03:35:19;12.07;;;5.90;;
78141;SDS011;67393;52.620;13.482;2024-02-21T03:37:45;21.55;;;6.10;;
78141;SDS011;67393;52.620;13.482;2024-02-21T03:40:11;15.95;;;6.55;;
78141;SDS011;67393;52.620;13.482;2024-02-21T03:42:38;18.30;;;5.40;;
78141;SDS011;67393;52.620;13.482;2024-02-21T03:45:04;18.00;;;6.70;;
78141;SDS011;67393;52.620;13.482;2024-02-21T03:47:30;18.33;;;7.20;;
78141;SDS011;67393;52.620;13.482;2024-02-21T03:49:57;20.23;;;6.07;;
78141;SDS011;67393;52.620;13.482;2024-02-21T03:52:23;22.33;;;7.65;;
78141;SDS011;67393;52.620;13.482;2024-02-21T03:54:50;19.33;;;6.35;;
78141;SDS011;67393;52.620;13.482;2024-02-21T03:57:16;23.02;;;6.25;;
78141;SDS011;67393;52.620;13.482;2024-02-21T03:59:42;22.98;;;7.97;;
78141;SDS011;67393;52.620;13.482;2024-02-21T04:02:10;17.15;;;7.22;;
78141;SDS011;67393;52.620;13.482;2024-02-21T04:04:36;17.40;;;6.68;;
78141;SDS011;67393;52.620;13.482;2024-02-21T04:07:03;21.67;;;7.50;;
78141;SDS011;67393;52.620;13.482;2024-02-21T04:09:29;23.38;;;7.18;;
78141;SDS011;67393;52.620;13.482;2024-02-21T04:11:55;22.83;;;7.57;;
78141;SDS011;67393;52.620;13.482;2024-02-21T04:14:21;27.02;;;7.88;;
78141;SDS011;67393;52.620;13.482;2024-02-21T04:16:48;29.58;;;8.50;;
78141;SDS011;67393;52.620;13.482;2024-02-21T04:19:14;21.35;;;5.65;;
78141;SDS011;67393;52.620;13.482;2024-02-21T04:21:40;19.95;;;7.25;;
78141;SDS011;67393;52.620;13.482;2024-02-21T04:24:07;18.20;;;7.78;;
78141;SDS011;67393;52.620;13.482;2024-02-21T04:26:33;24.50;;;7.90;;
78141;SDS011;67393;52.620;13.482;2024-02-21T04:29:00;23.55;;;8.10;;
78141;SDS011;67393;52.620;13.482;2024-02-21T04:31:27;30.25;;;7.57;;
78141;SDS011;67393;52.620;13.482;2024-02-21T04:33:54;13.52;;;6.95;;
78141;SDS011;67393;52.620;13.482;2024-02-21T04:36:20;40.70;;;8.65;;
78141;SDS011;67393;52.620;13.482;2024-02-21T04:38:46;24.65;;;8.55;;
78141;SDS011;67393;52.620;13.482;2024-02-21T04:41:12;21.48;;;7.60;;
78141;SDS011;67393;52.620;13.482;2024-02-21T04:43:39;21.85;;;8.73;;
78141;SDS011;67393;52.620;13.482;2024-02-21T04:46:05;22.25;;;8.20;;
78141;SDS011;67393;52.620;13.482;2024-02-21T04:48:31;29.35;;;8.07;;
78141;SDS011;67393;52.620;13.482;2024-02-21T04:50:58;19.65;;;6.88;;
78141;SDS011;67393;52.620;13.482;2024-02-21T04:53:24;17.17;;;6.57;;
78141;SDS011;67393;52.620;13.482;2024-02-21T04:55:50;26.27;;;8.20;;
78141;SDS011;67393;52.620;13.482;2024-02-21T04:58:16;24.33;;;8.45;;
78141;SDS011;67393;52.620;13.482;2024-02-21T05:00:43;21.88;;;7.97;;
78141;SDS011;67393;52.620;13.482;2024-02-21T05:03:09;18.10;;;7.20;;
78141;SDS011;67393;52.620;13.482;2024-02-21T05:05:35;26.50;;;7.50;;
78141;SDS011;67393;52.620;13.482;2024-02-21T05:08:02;28.40;;;8.45;;
78141;SDS011;67393;52.620;13.482;2024-02-21T05:10:28;27.02;;;8.23;;
78141;SDS011;67393;52.620;13.482;2024-02-21T05:12:55;28.10;;;9.65;;
78141;SDS011;67393;52.620;13.482;2024-02-21T05:15:21;21.55;;;7.35;;
78141;SDS011;67393;52.620;13.482;2024-02-21T05:17:47;19.85;;;7.25;;
78141;SDS011;67393;52.620;13.482;2024-02-21T05:20:14;21.75;;;7.13;;
78141;SDS011;67393;52.620;13.482;2024-02-21T05:22:40;23.35;;;8.20;;
78141;SDS011;67393;52.620;13.482;2024-02-21T05:25:07;14.93;;;7.38;;
78141;SDS011;67393;52.620;13.482;2024-02-21T05:27:33;17.92;;;6.43;;
78141;SDS011;67393;52.620;13.482;2024-02-21T05:29:59;26.17;;;8.75;;
78141;SDS011;67393;52.620;13.482;2024-02-21T05:32:26;20.42;;;8.00;;
78141;SDS011;67393;52.620;13.482;2024-02-21T05:34:52;25.27;;;7.55;;
78141;SDS011;67393;52.620;13.482;2024-02-21T05:37:18;27.48;;;9.25;;
78141;SDS011;67393;52.620;13.482;2024-02-21T05:39:44;23.73;;;8.77;;
78141;SDS011;67393;52.620;13.482;2024-02-21T05:42:11;25.20;;;7.60;;
78141;SDS011;67393;52.620;13.482;2024-02-21T05:44:37;17.42;;;7.45;;
78141;SDS011;67393;52.620;13.482;2024-02-21T05:47:03;11.32;;;5.13;;
78141;SDS011;67393;52.620;13.482;2024-02-21T05:49:30;27.08;;;8.25;;
78141;SDS011;67393;52.620;13.482;2024-02-21T05:51:56;28.95;;;8.30;;
78141;SDS011;67393;52.620;13.482;2024-02-21T05:54:22;16.50;;;6.78;;
78141;SDS011;67393;52.620;13.482;2024-02-21T05:56:48;12.45;;;5.50;;
78141;SDS011;67393;52.620;13.482;2024-02-21T05:59:15;22.38;;;8.02;;
78141;SDS011;67393;52.620;13.482;2024-02-21T06:01:41;21.15;;;8.05;;
78141;SDS011;67393;52.620;13.482;2024-02-21T06:04:07;24.92;;;8.85;;
78141;SDS011;67393;52.620;13.482;2024-02-21T06:06:34;24.38;;;7.85;;
78141;SDS011;67393;52.620;13.482;2024-02-21T06:09:00;27.15;;;8.45;;
78141;SDS011;67393;52.620;13.482;2024-02-21T06:11:26;31.60;;;9.63;;
78141;SDS011;67393;52.620;13.482;2024-02-21T06:13:53;28.27;;;10.55;;
78141;SDS011;67393;52.620;13.482;2024-02-21T06:16:19;23.83;;;8.35;;
78141;SDS011;67393;52.620;13.482;2024-02-21T06:18:45;28.50;;;9.57;;
78141;SDS011;67393;52.620;13.482;2024-02-21T06:21:12;28.95;;;10.02;;
78141;SDS011;67393;52.620;13.482;2024-02-21T06:23:38;22.63;;;8.05;;
78141;SDS011;67393;52.620;13.482;2024-02-21T06:26:04;25.25;;;8.93;;
78141;SDS011;67393;52.620;13.482;2024-02-21T06:28:30;30.90;;;9.40;;
78141;SDS011;67393;52.620;13.482;2024-02-21T06:30:57;18.55;;;6.88;;
78141;SDS011;67393;52.620;13.482;2024-02-21T06:33:23;24.45;;;7.47;;
78141;SDS011;67393;52.620;13.482;2024-02-21T06:35:49;22.20;;;8.85;;
78141;SDS011;67393;52.620;13.482;2024-02-21T06:38:16;28.95;;;8.75;;
78141;SDS011;67393;52.620;13.482;2024-02-21T06:40:42;21.85;;;8.45;;
78141;SDS011;67393;52.620;13.482;2024-02-21T06:43:08;24.25;;;9.80;;
78141;SDS011;67393;52.620;13.482;2024-02-21T06:45:35;16.13;;;7.57;;
78141;SDS011;67393;52.620;13.482;2024-02-21T06:48:01;20.02;;;7.68;;
78141;SDS011;67393;52.620;13.482;2024-02-21T06:50:28;27.65;;;8.10;;
78141;SDS011;67393;52.620;13.482;2024-02-21T06:52:54;17.02;;;6.25;;
78141;SDS011;67393;52.620;13.482;2024-02-21T06:55:20;15.15;;;6.72;;
78141;SDS011;67393;52.620;13.482;2024-02-21T06:57:47;19.10;;;7.97;;
78141;SDS011;67393;52.620;13.482;2024-02-21T07:00:13;17.95;;;5.82;;
78141;SDS011;67393;52.620;13.482;2024-02-21T07:02:40;29.80;;;10.05;;
78141;SDS011;67393;52.620;13.482;2024-02-21T07:05:06;22.20;;;7.95;;
78141;SDS011;67393;52.620;13.482;2024-02-21T07:07:32;25.65;;;7.70;;
78141;SDS011;67393;52.620;13.482;2024-02-21T07:09:59;22.58;;;7.55;;
78141;SDS011;67393;52.620;13.482;2024-02-21T07:12:25;27.92;;;7.93;;
78141;SDS011;67393;52.620;13.482;2024-02-21T07:14:51;31.27;;;8.50;;
78141;SDS011;67393;52.620;13.482;2024-02-21T07:17:18;20.35;;;9.02;;
78141;SDS011;67393;52.620;13.482;2024-02-21T07:19:44;24.67;;;8.43;;
78141;SDS011;67393;52.620;13.482;2024-02-21T07:22:10;19.92;;;7.38;;
78141;SDS011;67393;52.620;13.482;2024-02-21T07:24:36;11.45;;;4.45;;
78141;SDS011;67393;52.620;13.482;2024-02-21T07:27:03;18.40;;;6.72;;
78141;SDS011;67393;52.620;13.482;2024-02-21T07:29:29;21.73;;;9.18;;
78141;SDS011;67393;52.620;13.482;2024-02-21T07:31:56;30.02;;;8.68;;
78141;SDS011;67393;52.620;13.482;2024-02-21T07:34:22;19.75;;;7.50;;
78141;SDS011;67393;52.620;13.482;2024-02-21T07:36:48;23.25;;;8.68;;
78141;SDS011;67393;52.620;13.482;2024-02-21T07:39:15;23.23;;;7.90;;
78141;SDS011;67393;52.620;13.482;2024-02-21T07:41:41;21.00;;;6.95;;
78141;SDS011;67393;52.620;13.482;2024-02-21T07:44:07;19.25;;;7.07;;
78141;SDS011;67393;52.620;13.482;2024-02-21T07:46:33;18.27;;;8.00;;
78141;SDS011;67393;52.620;13.482;2024-02-21T07:49:00;20.40;;;7.75;;
78141;SDS011;67393;52.620;13.482;2024-02-21T07:51:29;21.75;;;7.78;;
78141;SDS011;67393;52.620;13.482;2024-02-21T07:53:55;22.52;;;9.07;;
78141;SDS011;67393;52.620;13.482;2024-02-21T07:56:22;17.55;;;6.38;;
78141;SDS011;67393;52.620;13.482;2024-02-21T07:58:48;25.10;;;9.13;;
78141;SDS011;67393;52.620;13.482;2024-02-21T08:01:18;23.17;;;8.35;;
78141;SDS011;67393;52.620;13.482;2024-02-21T08:03:44;16.90;;;6.63;;
78141;SDS011;67393;52.620;13.482;2024-02-21T08:06:11;21.27;;;9.20;;
78141;SDS011;67393;52.620;13.482;2024-02-21T08:08:38;22.85;;;7.53;;
78141;SDS011;67393;52.620;13.482;2024-02-21T08:11:04;8.85;;;3.95;;
78141;SDS011;67393;52.620;13.482;2024-02-21T08:13:31;17.98;;;7.38;;
78141;SDS011;67393;52.620;13.482;2024-02-21T08:15:57;22.23;;;7.53;;
78141;SDS011;67393;52.620;13.482;2024-02-21T08:18:23;17.33;;;7.32;;
78141;SDS011;67393;52.620;13.482;2024-02-21T08:20:49;16.40;;;6.82;;
78141;SDS011;67393;52.620;13.482;2024-02-21T08:23:16;15.00;;;7.10;;
78141;SDS011;67393;52.620;13.482;2024-02-21T08:25:42;13.68;;;6.85;;
78141;SDS011;67393;52.620;13.482;2024-02-21T08:28:08;14.38;;;6.97;;
78141;SDS011;67393;52.620;13.482;2024-02-21T08:30:35;18.65;;;7.43;;
78141;SDS011;67393;52.620;13.482;2024-02-21T08:33:01;21.92;;;7.38;;
78141;SDS011;67393;52.620;13.482;2024-02-21T08:35:27;18.30;;;7.50;;
78141;SDS011;67393;52.620;13.482;2024-02-21T08:37:54;17.83;;;7.45;;
78141;SDS011;67393;52.620;13.482;2024-02-21T08:40:20;16.60;;;6.38;;
78141;SDS011;67393;52.620;13.482;2024-02-21T08:42:47;17.35;;;7.70;;
78141;SDS011;67393;52.620;13.482;2024-02-21T08:45:13;17.30;;;5.90;;
78141;SDS011;67393;52.620;13.482;2024-02-21T08:47:40;19.60;;;7.07;;
78141;SDS011;67393;52.620;13.482;2024-02-21T08:50:06;16.88;;;7.78;;
78141;SDS011;67393;52.620;13.482;2024-02-21T08:52:44;17.15;;;7.13;;
78141;SDS011;67393;52.620;13.482;2024-02-21T08:55:10;15.65;;;6.28;;
78141;SDS011;67393;52.620;13.482;2024-02-21T08:57:37;15.88;;;6.78;;
78141;SDS011;67393;52.620;13.482;2024-02-21T09:00:04;13.85;;;7.68;;
78141;SDS011;67393;52.620;13.482;2024-02-21T09:02:30;14.80;;;6.97;;
78141;SDS011;67393;52.620;13.482;2024-02-21T09:04:57;19.15;;;7.57;;
78141;SDS011;67393;52.620;13.482;2024-02-21T09:07:23;23.75;;;7.18;;
78141;SDS011;67393;52.620;13.482;2024-02-21T09:09:50;22.35;;;9.27;;
78141;SDS011;67393;52.620;13.482;2024-02-21T09:12:16;20.48;;;8.05;;
78141;SDS011;67393;52.620;13.482;2024-02-21T09:14:42;16.77;;;6.53;;
78141;SDS011;67393;52.620;13.482;2024-02-21T09:17:08;17.50;;;7.65;;
78141;SDS011;67393;52.620;13.482;2024-02-21T09:19:35;18.38;;;6.43;;
78141;SDS011;67393;52.620;13.482;2024-02-21T09:22:01;13.90;;;5.43;;
78141;SDS011;67393;52.620;13.482;2024-02-21T09:24:27;21.50;;;8.40;;
78141;SDS011;67393;52.620;13.482;2024-02-21T09:26:54;20.13;;;6.82;;
78141;SDS011;67393;52.620;13.482;2024-02-21T09:29:20;19.83;;;8.38;;
78141;SDS011;67393;52.620;13.482;2024-02-21T09:31:52;18.38;;;6.47;;
78141;SDS011;67393;52.620;13.482;2024-02-21T09:34:18;24.40;;;7.72;;
78141;SDS011;67393;52.620;13.482;2024-02-21T09:36:45;17.10;;;7.97;;
78141;SDS011;67393;52.620;13.482;2024-02-21T09:39:11;18.45;;;8.38;;
78141;SDS011;67393;52.620;13.482;2024-02-21T09:41:37;16.27;;;6.18;;
78141;SDS011;67393;52.620;13.482;2024-02-21T09:44:07;13.95;;;7.50;;
78141;SDS011;67393;52.620;13.482;2024-02-21T09:46:51;17.65;;;8.13;;
78141;SDS011;67393;52.620;13.482;2024-02-21T09:49:21;18.77;;;7.53;;
78141;SDS011;67393;52.620;13.482;2024-02-21T09:51:51;23.00;;;8.65;;
78141;SDS011;67393;52.620;13.482;2024-02-21T09:54:20;17.08;;;6.70;;
78141;SDS011;67393;52.620;13.482;2024-02-21T09:56:46;23.48;;;9.00;;
78141;SDS011;67393;52.620;13.482;2024-02-21T09:59:16;21.70;;;8.88;;
78141;SDS011;67393;52.620;13.482;2024-02-21T10:01:43;21.20;;;7.40;;
78141;SDS011;67393;52.620;13.482;2024-02-21T10:04:10;17.10;;;7.50;;
78141;SDS011;67393;52.620;13.482;2024-02-21T10:06:36;19.08;;;8.23;;
78141;SDS011;67393;52.620;13.482;2024-02-21T10:09:03;21.67;;;8.18;;
78141;SDS011;67393;52.620;13.482;2024-02-21T10:11:29;22.23;;;8.98;;
78141;SDS011;67393;52.620;13.482;2024-02-21T10:14:05;16.30;;;7.93;;
78141;SDS011;67393;52.620;13.482;2024-02-21T10:16:31;24.88;;;8.95;;
78141;SDS011;67393;52.620;13.482;2024-02-21T10:18:58;17.40;;;7.05;;
78141;SDS011;67393;52.620;13.482;2024-02-21T10:21:24;15.52;;;6.53;;
78141;SDS011;67393;52.620;13.482;2024-02-21T10:23:51;17.45;;;6.22;;
78141;SDS011;67393;52.620;13.482;2024-02-21T10:26:18;18.90;;;9.10;;
78141;SDS011;67393;52.620;13.482;2024-02-21T10:28:44;18.42;;;8.45;;
78141;SDS011;67393;52.620;13.482;2024-02-21T10:31:11;16.60;;;7.00;;
78141;SDS011;67393;52.620;13.482;2024-02-21T10:33:38;22.40;;;8.25;;
78141;SDS011;67393;52.620;13.482;2024-02-21T10:36:10;17.77;;;8.18;;
78141;SDS011;67393;52.620;13.482;2024-02-21T10:38:37;10.60;;;5.95;;
78141;SDS011;67393;52.620;13.482;2024-02-21T10:41:06;17.48;;;7.05;;
78141;SDS011;67393;52.620;13.482;2024-02-21T10:43:39;14.40;;;7.70;;
78141;SDS011;67393;52.620;13.482;2024-02-21T10:46:06;15.80;;;6.43;;
78141;SDS011;67393;52.620;13.482;2024-02-21T10:48:45;16.60;;;6.93;;
78141;SDS011;67393;52.620;13.482;2024-02-21T10:56:24;21.92;;;7.00;;
78141;SDS011;67393;52.620;13.482;2024-02-21T10:58:52;17.10;;;7.93;;
78141;SDS011;67393;52.620;13.482;2024-02-21T11:01:19;21.38;;;6.57;;
78141;SDS011;67393;52.620;13.482;2024-02-21T11:03:46;13.75;;;6.78;;
78141;SDS011;67393;52.620;13.482;2024-02-21T11:06:12;22.45;;;7.22;;
78141;SDS011;67393;52.620;13.482;2024-02-21T11:08:39;14.27;;;7.60;;
78141;SDS011;67393;52.620;13.482;2024-02-21T11:11:05;18.25;;;7.65;;
78141;SDS011;67393;52.620;13.482;2024-02-21T11:16:07;16.45;;;6.78;;
78141;SDS011;67393;52.620;13.482;2024-02-21T11:18:33;14.38;;;7.03;;
78141;SDS011;67393;52.620;13.482;2024-02-21T11:21:00;13.32;;;6.28;;
78141;SDS011;67393;52.620;13.482;2024-02-21T11:23:26;11.75;;;5.13;;
78141;SDS011;67393;52.620;13.482;2024-02-21T11:26:03;12.80;;;6.00;;
78141;SDS011;67393;52.620;13.482;2024-02-21T11:28:29;14.07;;;6.32;;
78141;SDS011;67393;52.620;13.482;2024-02-21T11:31:06;14.57;;;6.90;;
78141;SDS011;67393;52.620;13.482;2024-02-21T11:33:33;13.30;;;6.47;;
78141;SDS011;67393;52.620;13.482;2024-02-21T11:35:59;15.68;;;5.95;;
78141;SDS011;67393;52.620;13.482;2024-02-21T11:38:25;10.52;;;6.18;;
78141;SDS011;67393;52.620;13.482;2024-02-21T11:40:51;20.60;;;7.20;;
78141;SDS011;67393;52.620;13.482;2024-02-21T11:43:18;17.08;;;6.07;;
78141;SDS011;67393;52.620;13.482;2024-02-21T11:45:44;14.77;;;5.70;;
78141;SDS011;67393;52.620;13.482;2024-02-21T11:48:10;11.80;;;5.90;;
78141;SDS011;67393;52.620;13.482;2024-02-21T11:50:37;13.40;;;6.53;;
78141;SDS011;67393;52.620;13.482;2024-02-21T11:53:03;20.75;;;5.75;;
78141;SDS011;67393;52.620;13.482;2024-02-21T11:55:29;9.88;;;5.18;;
78141;SDS011;67393;52.620;13.482;2024-02-21T11:57:56;17.77;;;5.82;;
78141;SDS011;67393;52.620;13.482;2024-02-21T12:00:22;10.70;;;5.32;;
78141;SDS011;67393;52.620;13.482;2024-02-21T12:02:49;8.95;;;5.35;;
78141;SDS011;67393;52.620;13.482;2024-02-21T12:05:15;8.82;;;4.45;;
78141;SDS011;67393;52.620;13.482;2024-02-21T12:07:42;6.88;;;4.25;;
78141;SDS011;67393;52.620;13.482;2024-02-21T12:10:08;6.78;;;3.60;;
78141;SDS011;67393;52.620;13.482;2024-02-21T12:12:35;8.35;;;4.70;;
78141;SDS011;67393;52.620;13.482;2024-02-21T12:15:02;9.68;;;4.38;;
78141;SDS011;67393;52.620;13.482;2024-02-21T12:17:28;10.30;;;3.95;;
78141;SDS011;67393;52.620;13.482;2024-02-21T12:19:54;11.15;;;4.93;;
78141;SDS011;67393;52.620;13.482;2024-02-21T12:22:22;5.95;;;3.50;;
78141;SDS011;67393;52.620;13.482;2024-02-21T12:24:48;8.18;;;4.05;;
78141;SDS011;67393;52.620;13.482;2024-02-21T12:27:15;6.55;;;3.47;;
78141;SDS011;67393;52.620;13.482;2024-02-21T12:29:41;6.68;;;3.55;;
78141;SDS011;67393;52.620;13.482;2024-02-21T12:32:07;7.22;;;3.20;;
78141;SDS011;67393;52.620;13.482;2024-02-21T12:34:34;4.88;;;3.17;;
78141;SDS011;67393;52.620;13.482;2024-02-21T12:37:18;11.05;;;3.55;;
78141;SDS011;67393;52.620;13.482;2024-02-21T12:39:44;8.52;;;4.35;;
78141;SDS011;67393;52.620;13.482;2024-02-21T12:42:10;7.07;;;4.25;;
78141;SDS011;67393;52.620;13.482;2024-02-21T12:44:36;5.70;;;4.07;;
78141;SDS011;67393;52.620;13.482;2024-02-21T12:47:03;5.30;;;2.40;;
78141;SDS011;67393;52.620;13.482;2024-02-21T12:49:29;10.63;;;4.82;;
78141;SDS011;67393;52.620;13.482;2024-02-21T12:51:56;7.65;;;3.47;;
78141;SDS011;67393;52.620;13.482;2024-02-21T12:54:22;9.63;;;3.60;;
78141;SDS011;67393;52.620;13.482;2024-02-21T12:56:48;6.53;;;2.83;;
78141;SDS011;67393;52.620;13.482;2024-02-21T12:59:15;9.02;;;2.80;;
78141;SDS011;67393;52.620;13.482;2024-02-21T13:01:41;4.60;;;2.80;;
78141;SDS011;67393;52.620;13.482;2024-02-21T13:04:07;8.35;;;3.00;;
78141;SDS011;67393;52.620;13.482;2024-02-21T13:06:34;5.57;;;2.58;;
78141;SDS011;67393;52.620;13.482;2024-02-21T13:09:00;5.57;;;2.53;;
78141;SDS011;67393;52.620;13.482;2024-02-21T13:11:26;7.65;;;3.13;;
78141;SDS011;67393;52.620;13.482;2024-02-21T13:13:53;5.15;;;2.47;;
78141;SDS011;67393;52.620;13.482;2024-02-21T13:16:19;5.80;;;2.97;;
78141;SDS011;67393;52.620;13.482;2024-02-21T13:18:45;7.45;;;3.08;;
78141;SDS011;67393;52.620;13.482;2024-02-21T13:21:12;4.63;;;3.10;;
78141;SDS011;67393;52.620;13.482;2024-02-21T13:23:39;5.38;;;2.70;;
78141;SDS011;67393;52.620;13.482;2024-02-21T13:26:05;7.03;;;2.63;;
78141;SDS011;67393;52.620;13.482;2024-02-21T13:28:32;10.52;;;3.03;;
78141;SDS011;67393;52.620;13.482;2024-02-21T13:30:58;8.15;;;2.92;;
78141;SDS011;67393;52.620;13.482;2024-02-21T13:33:24;5.85;;;2.80;;
78141;SDS011;67393;52.620;13.482;2024-02-21T13:35:51;6.15;;;2.58;;
78141;SDS011;67393;52.620;13.482;2024-02-21T13:38:17;4.90;;;2.30;;
78141;SDS011;67393;52.620;13.482;2024-02-21T13:40:43;4.57;;;2.70;;
78141;SDS011;67393;52.620;13.482;2024-02-21T13:43:10;7.32;;;2.85;;
78141;SDS011;67393;52.620;13.482;2024-02-21T13:45:37;7.90;;;3.05;;
78141;SDS011;67393;52.620;13.482;2024-02-21T13:48:03;5.75;;;3.20;;
78141;SDS011;67393;52.620;13.482;2024-02-21T13:50:30;8.77;;;3.35;;
78141;SDS011;67393;52.620;13.482;2024-02-21T13:52:56;9.15;;;3.25;;
78141;SDS011;67393;52.620;13.482;2024-02-21T13:55:23;5.53;;;3.15;;
78141;SDS011;67393;52.620;13.482;2024-02-21T13:57:49;9.13;;;3.88;;
78141;SDS011;67393;52.620;13.482;2024-02-21T14:00:15;10.55;;;4.45;;
78141;SDS011;67393;52.620;13.482;2024-02-21T14:02:42;8.13;;;4.15;;
78141;SDS011;67393;52.620;13.482;2024-02-21T14:05:08;5.97;;;3.95;;
78141;SDS011;67393;52.620;13.482;2024-02-21T14:07:34;9.30;;;3.97;;
78141;SDS011;67393;52.620;13.482;2024-02-21T14:10:01;8.45;;;4.00;;
78141;SDS011;67393;52.620;13.482;2024-02-21T14:12:27;10.00;;;3.65;;
78141;SDS011;67393;52.620;13.482;2024-02-21T14:14:53;8.45;;;3.95;;
78141;SDS011;67393;52.620;13.482;2024-02-21T14:17:20;10.55;;;3.88;;
78141;SDS011;67393;52.620;13.482;2024-02-21T14:19:46;11.90;;;4.15;;
78141;SDS011;67393;52.620;13.482;2024-02-21T14:22:12;4.72;;;2.58;;
78141;SDS011;67393;52.620;13.482;2024-02-21T14:24:39;10.57;;;4.18;;
78141;SDS011;67393;52.620;13.482;2024-02-21T14:27:05;7.63;;;3.75;;